sensor_id;sensor_type;location;lat;lon;timestamp;temperature;humidity
18218;DHT22;9234;49.344;11.120;2023-04-15T00:00:55;6.40;99.90
18218;DHT22;9234;49.344;11.120;2023-04-15T00:03:25;6.30;99.90
18218;DHT22;9234;49.344;11.120;2023-04-15T00:05:54;6.30;99.90
18218;DHT22;9234;49.344;11.120;2023-04-15T00:08:23;6.30;99.90
18218;DHT22;9234;49.344;11.120;2023-04-15T00:10:52;6.30;99.90
18218;DHT22;9234;49.344;11.120;2023-04-15T00:13:20;6.30;99.90
18218;DHT22;9234;49.344;11.120;2023-04-15T00:15:49;6.30;99.90
18218;DHT22;9234;49.344;11.120;2023-04-15T00:18:17;6.30;99.90
18218;DHT22;9234;49.344;11.120;2023-04-15T00:20:46;6.40;99.90
18218;DHT22;9234;49.344;11.120;2023-04-15T00:23:14;6.40;99.90
18218;DHT22;9234;49.344;11.120;2023-04-15T00:25:42;6.40;99.90
18218;DHT22;9234;49.344;11.120;2023-04-15T00:28:12;6.40;99.90
18218;DHT22;9234;49.344;11.120;2023-04-15T00:30:41;6.40;99.90
18218;DHT22;9234;49.344;11.120;2023-04-15T00:33:12;6.40;99.90
18218;DHT22;9234;49.344;11.120;2023-04-15T00:35:40;6.40;99.90
18218;DHT22;9234;49.344;11.120;2023-04-15T00:38:08;6.40;99.90
18218;DHT22;9234;49.344;11.120;2023-04-15T00:40:37;6.40;99.90
18218;DHT22;9234;49.344;11.120;2023-04-15T00:43:05;6.40;99.90
18218;DHT22;9234;49.344;11.120;2023-04-15T00:45:35;6.40;99.90
18218;DHT22;9234;49.344;11.120;2023-04-15T00:48:04;6.40;99.90
18218;DHT22;9234;49.344;11.120;2023-04-15T00:50:33;6.40;99.90
18218;DHT22;9234;49.344;11.120;2023-04-15T00:53:01;6.40;99.90
18218;DHT22;9234;49.344;11.120;2023-04-15T00:55:29;6.40;99.90
18218;DHT22;9234;49.344;11.120;2023-04-15T00:57:57;6.40;99.90
18218;DHT22;9234;49.344;11.120;2023-04-15T01:00:25;6.40;99.90
18218;DHT22;9234;49.344;11.120;2023-04-15T01:02:56;6.50;99.90
18218;DHT22;9234;49.344;11.120;2023-04-15T01:05:24;6.50;99.90
18218;DHT22;9234;49.344;11.120;2023-04-15T01:07:54;6.50;99.90
18218;DHT22;9234;49.344;11.120;2023-04-15T01:10:22;6.50;99.90
18218;DHT22;9234;49.344;11.120;2023-04-15T01:12:50;6.50;99.90
18218;DHT22;9234;49.344;11.120;2023-04-15T01:15:20;6.50;99.90
18218;DHT22;9234;49.344;11.120;2023-04-15T01:17:48;6.50;99.90
18218;DHT22;9234;49.344;11.120;2023-04-15T01:20:19;6.50;99.90
18218;DHT22;9234;49.344;11.120;2023-04-15T01:22:48;6.50;99.90
18218;DHT22;9234;49.344;11.120;2023-04-15T01:25:18;6.50;99.90
18218;DHT22;9234;49.344;11.120;2023-04-15T01:27:51;6.50;99.90
18218;DHT22;9234;49.344;11.120;2023-04-15T01:30:19;6.50;99.90
18218;DHT22;9234;49.344;11.120;2023-04-15T01:32:48;6.50;99.90
18218;DHT22;9234;49.344;11.120;2023-04-15T01:35:18;6.40;99.90
18218;DHT22;9234;49.344;11.120;2023-04-15T01:37:47;6.50;99.90
18218;DHT22;9234;49.344;11.120;2023-04-15T01:40:16;6.40;99.90
18218;DHT22;9234;49.344;11.120;2023-04-15T01:42:44;6.40;99.90
18218;DHT22;9234;49.344;11.120;2023-04-15T01:45:15;6.40;99.90
18218;DHT22;9234;49.344;11.120;2023-04-15T01:47:44;6.40;99.90
18218;DHT22;9234;49.344;11.120;2023-04-15T01:50:12;6.40;99.90
18218;DHT22;9234;49.344;11.120;2023-04-15T01:52:40;6.40;99.90
18218;DHT22;9234;49.344;11.120;2023-04-15T01:55:10;6.40;99.90
18218;DHT22;9234;49.344;11.120;2023-04-15T01:57:39;6.40;99.90
18218;DHT22;9234;49.344;11.120;2023-04-15T02:00:08;6.40;99.90
18218;DHT22;9234;49.344;11.120;2023-04-15T02:02:42;6.40;99.90
18218;DHT22;9234;49.344;11.120;2023-04-15T02:05:10;6.40;99.90
18218;DHT22;9234;49.344;11.120;2023-04-15T02:07:38;6.40;99.90
18218;DHT22;9234;49.344;11.120;2023-04-15T02:10:08;6.40;99.90
18218;DHT22;9234;49.344;11.120;2023-04-15T02:12:37;6.40;99.90
18218;DHT22;9234;49.344;11.120;2023-04-15T02:15:07;6.40;99.90
18218;DHT22;9234;49.344;11.120;2023-04-15T02:17:36;6.40;99.90
18218;DHT22;9234;49.344;11.120;2023-04-15T02:20:07;6.40;99.90
18218;DHT22;9234;49.344;11.120;2023-04-15T02:22:36;6.40;99.90
18218;DHT22;9234;49.344;11.120;2023-04-15T02:25:05;6.40;99.90
18218;DHT22;9234;49.344;11.120;2023-04-15T02:27:35;6.40;99.90
18218;DHT22;9234;49.344;11.120;2023-04-15T02:30:04;6.40;99.90
18218;DHT22;9234;49.344;11.120;2023-04-15T02:32:34;6.40;99.90
18218;DHT22;9234;49.344;11.120;2023-04-15T02:35:06;6.40;99.90
18218;DHT22;9234;49.344;11.120;2023-04-15T02:37:36;6.40;99.90
18218;DHT22;9234;49.344;11.120;2023-04-15T02:40:10;6.40;99.90
18218;DHT22;9234;49.344;11.120;2023-04-15T02:42:39;6.40;99.90
18218;DHT22;9234;49.344;11.120;2023-04-15T02:45:11;6.40;99.90
18218;DHT22;9234;49.344;11.120;2023-04-15T02:47:40;6.40;99.90
18218;DHT22;9234;49.344;11.120;2023-04-15T02:50:12;6.40;99.90
18218;DHT22;9234;49.344;11.120;2023-04-15T02:52:41;6.40;99.90
18218;DHT22;9234;49.344;11.120;2023-04-15T02:55:10;6.50;99.90
18218;DHT22;9234;49.344;11.120;2023-04-15T02:57:39;6.40;99.90
18218;DHT22;9234;49.344;11.120;2023-04-15T03:00:09;6.50;99.90
18218;DHT22;9234;49.344;11.120;2023-04-15T03:02:44;6.50;99.90
18218;DHT22;9234;49.344;11.120;2023-04-15T03:05:15;6.50;99.90
18218;DHT22;9234;49.344;11.120;2023-04-15T03:07:48;6.50;99.90
18218;DHT22;9234;49.344;11.120;2023-04-15T03:10:17;6.50;99.90
18218;DHT22;9234;49.344;11.120;2023-04-15T03:12:46;6.50;99.90
18218;DHT22;9234;49.344;11.120;2023-04-15T03:15:17;6.50;99.90
18218;DHT22;9234;49.344;11.120;2023-04-15T03:17:49;6.50;99.90
18218;DHT22;9234;49.344;11.120;2023-04-15T03:20:18;6.60;99.90
18218;DHT22;9234;49.344;11.120;2023-04-15T03:22:47;6.60;99.90
18218;DHT22;9234;49.344;11.120;2023-04-15T03:25:17;6.60;99.90
18218;DHT22;9234;49.344;11.120;2023-04-15T03:27:46;6.60;99.90
18218;DHT22;9234;49.344;11.120;2023-04-15T03:30:15;6.60;99.90
18218;DHT22;9234;49.344;11.120;2023-04-15T03:32:44;6.60;99.90
18218;DHT22;9234;49.344;11.120;2023-04-15T03:35:12;6.60;99.90
18218;DHT22;9234;49.344;11.120;2023-04-15T03:37:42;6.60;99.90
18218;DHT22;9234;49.344;11.120;2023-04-15T03:40:11;6.60;99.90
18218;DHT22;9234;49.344;11.120;2023-04-15T03:42:39;6.60;99.90
18218;DHT22;9234;49.344;11.120;2023-04-15T03:45:08;6.60;99.90
18218;DHT22;9234;49.344;11.120;2023-04-15T03:47:37;6.60;99.90
18218;DHT22;9234;49.344;11.120;2023-04-15T03:50:07;6.60;99.90
18218;DHT22;9234;49.344;11.120;2023-04-15T03:52:35;6.60;99.90
18218;DHT22;9234;49.344;11.120;2023-04-15T03:55:05;6.60;99.90
18218;DHT22;9234;49.344;11.120;2023-04-15T03:57:34;6.60;99.90
18218;DHT22;9234;49.344;11.120;2023-04-15T04:00:06;6.60;99.90
18218;DHT22;9234;49.344;11.120;2023-04-15T04:02:39;6.60;99.90
18218;DHT22;9234;49.344;11.120;2023-04-15T04:05:08;6.60;99.90
18218;DHT22;9234;49.344;11.120;2023-04-15T04:07:36;6.60;99.90
18218;DHT22;9234;49.344;11.120;2023-04-15T04:10:07;6.60;99.90
18218;DHT22;9234;49.344;11.120;2023-04-15T04:12:35;6.60;99.90
18218;DHT22;9234;49.344;11.120;2023-04-15T04:15:04;6.60;99.90
18218;DHT22;9234;49.344;11.120;2023-04-15T04:17:33;6.60;99.90
18218;DHT22;9234;49.344;11.120;2023-04-15T04:20:02;6.60;99.90
18218;DHT22;9234;49.344;11.120;2023-04-15T04:22:35;6.60;99.90
18218;DHT22;9234;49.344;11.120;2023-04-15T04:25:06;6.60;99.90
18218;DHT22;9234;49.344;11.120;2023-04-15T04:27:36;6.60;99.90
18218;DHT22;9234;49.344;11.120;2023-04-15T04:30:05;6.60;99.90
18218;DHT22;9234;49.344;11.120;2023-04-15T04:32:34;6.70;99.90
18218;DHT22;9234;49.344;11.120;2023-04-15T04:35:02;6.70;99.90
18218;DHT22;9234;49.344;11.120;2023-04-15T04:37:31;6.60;99.90
18218;DHT22;9234;49.344;11.120;2023-04-15T04:39:59;6.70;99.90
18218;DHT22;9234;49.344;11.120;2023-04-15T04:42:28;6.70;99.90
18218;DHT22;9234;49.344;11.120;2023-04-15T04:44:57;6.70;99.90
18218;DHT22;9234;49.344;11.120;2023-04-15T04:47:25;6.70;99.90
18218;DHT22;9234;49.344;11.120;2023-04-15T04:49:53;6.70;99.90
18218;DHT22;9234;49.344;11.120;2023-04-15T04:52:21;6.70;99.90
18218;DHT22;9234;49.344;11.120;2023-04-15T04:54:49;6.70;99.90
18218;DHT22;9234;49.344;11.120;2023-04-15T04:57:18;6.70;99.90
18218;DHT22;9234;49.344;11.120;2023-04-15T04:59:47;6.70;99.90
18218;DHT22;9234;49.344;11.120;2023-04-15T05:02:16;6.80;99.90
18218;DHT22;9234;49.344;11.120;2023-04-15T05:04:44;6.70;99.90
18218;DHT22;9234;49.344;11.120;2023-04-15T05:07:12;6.80;99.90
18218;DHT22;9234;49.344;11.120;2023-04-15T05:09:41;6.80;99.90
18218;DHT22;9234;49.344;11.120;2023-04-15T05:12:09;6.80;99.90
18218;DHT22;9234;49.344;11.120;2023-04-15T05:14:40;6.90;99.90
18218;DHT22;9234;49.344;11.120;2023-04-15T05:17:10;6.90;99.90
18218;DHT22;9234;49.344;11.120;2023-04-15T05:19:38;6.90;99.90
18218;DHT22;9234;49.344;11.120;2023-04-15T05:22:06;7.00;99.90
18218;DHT22;9234;49.344;11.120;2023-04-15T05:24:35;7.00;99.90
18218;DHT22;9234;49.344;11.120;2023-04-15T05:27:03;7.00;99.90
18218;DHT22;9234;49.344;11.120;2023-04-15T05:29:31;7.10;99.90
18218;DHT22;9234;49.344;11.120;2023-04-15T05:32:00;7.10;99.90
18218;DHT22;9234;49.344;11.120;2023-04-15T05:34:29;7.20;99.90
18218;DHT22;9234;49.344;11.120;2023-04-15T05:36:57;7.20;99.90
18218;DHT22;9234;49.344;11.120;2023-04-15T05:39:26;7.30;99.90
18218;DHT22;9234;49.344;11.120;2023-04-15T05:41:54;7.30;99.90
18218;DHT22;9234;49.344;11.120;2023-04-15T05:44:23;7.40;99.90
18218;DHT22;9234;49.344;11.120;2023-04-15T05:46:51;7.40;99.90
18218;DHT22;9234;49.344;11.120;2023-04-15T05:49:20;7.50;99.90
18218;DHT22;9234;49.344;11.120;2023-04-15T05:51:49;7.50;99.90
18218;DHT22;9234;49.344;11.120;2023-04-15T05:54:17;7.60;99.90
18218;DHT22;9234;49.344;11.120;2023-04-15T05:56:47;7.70;99.90
18218;DHT22;9234;49.344;11.120;2023-04-15T05:59:16;7.70;99.90
18218;DHT22;9234;49.344;11.120;2023-04-15T06:01:44;7.80;99.90
18218;DHT22;9234;49.344;11.120;2023-04-15T06:04:12;7.90;99.90
18218;DHT22;9234;49.344;11.120;2023-04-15T06:06:41;7.90;99.90
18218;DHT22;9234;49.344;11.120;2023-04-15T06:09:10;8.00;99.90
18218;DHT22;9234;49.344;11.120;2023-04-15T06:11:39;8.00;99.90
18218;DHT22;9234;49.344;11.120;2023-04-15T06:14:07;8.00;99.90
18218;DHT22;9234;49.344;11.120;2023-04-15T06:16:35;8.10;99.90
18218;DHT22;9234;49.344;11.120;2023-04-15T06:19:04;8.10;99.90
18218;DHT22;9234;49.344;11.120;2023-04-15T06:21:32;8.10;99.90
18218;DHT22;9234;49.344;11.120;2023-04-15T06:24:01;8.10;99.90
18218;DHT22;9234;49.344;11.120;2023-04-15T06:26:30;8.10;99.90
18218;DHT22;9234;49.344;11.120;2023-04-15T06:28:59;8.10;99.90
18218;DHT22;9234;49.344;11.120;2023-04-15T06:31:28;8.10;99.90
18218;DHT22;9234;49.344;11.120;2023-04-15T06:33:56;8.20;99.90
18218;DHT22;9234;49.344;11.120;2023-04-15T06:36:24;8.20;99.90
18218;DHT22;9234;49.344;11.120;2023-04-15T06:38:53;8.30;99.90
18218;DHT22;9234;49.344;11.120;2023-04-15T06:41:22;8.40;99.90
18218;DHT22;9234;49.344;11.120;2023-04-15T06:43:51;8.50;99.90
18218;DHT22;9234;49.344;11.120;2023-04-15T06:46:20;8.50;99.90
18218;DHT22;9234;49.344;11.120;2023-04-15T06:48:48;8.60;99.90
18218;DHT22;9234;49.344;11.120;2023-04-15T06:51:18;8.70;99.90
18218;DHT22;9234;49.344;11.120;2023-04-15T06:53:46;8.60;99.90
18218;DHT22;9234;49.344;11.120;2023-04-15T06:56:14;8.70;99.90
18218;DHT22;9234;49.344;11.120;2023-04-15T06:58:42;8.70;99.90
18218;DHT22;9234;49.344;11.120;2023-04-15T07:01:12;8.80;99.90
18218;DHT22;9234;49.344;11.120;2023-04-15T07:03:41;8.90;99.90
18218;DHT22;9234;49.344;11.120;2023-04-15T07:06:09;9.00;99.90
18218;DHT22;9234;49.344;11.120;2023-04-15T07:08:37;9.10;99.90
18218;DHT22;9234;49.344;11.120;2023-04-15T07:11:06;9.10;99.90
18218;DHT22;9234;49.344;11.120;2023-04-15T07:13:34;9.20;99.90
18218;DHT22;9234;49.344;11.120;2023-04-15T07:16:03;9.20;99.90
18218;DHT22;9234;49.344;11.120;2023-04-15T07:18:33;9.20;99.90
18218;DHT22;9234;49.344;11.120;2023-04-15T07:21:02;9.30;99.90
18218;DHT22;9234;49.344;11.120;2023-04-15T07:23:30;9.30;99.90
18218;DHT22;9234;49.344;11.120;2023-04-15T07:25:58;9.40;99.90
18218;DHT22;9234;49.344;11.120;2023-04-15T07:28:27;9.30;99.90
18218;DHT22;9234;49.344;11.120;2023-04-15T07:30:55;9.40;99.90
18218;DHT22;9234;49.344;11.120;2023-04-15T07:33:23;9.40;99.90
18218;DHT22;9234;49.344;11.120;2023-04-15T07:35:53;9.40;99.90
18218;DHT22;9234;49.344;11.120;2023-04-15T07:38:22;9.40;99.90
18218;DHT22;9234;49.344;11.120;2023-04-15T07:40:50;9.50;99.90
18218;DHT22;9234;49.344;11.120;2023-04-15T07:43:18;9.50;99.90
18218;DHT22;9234;49.344;11.120;2023-04-15T07:45:47;9.60;99.90
18218;DHT22;9234;49.344;11.120;2023-04-15T07:48:15;9.70;99.90
18218;DHT22;9234;49.344;11.120;2023-04-15T07:50:43;9.80;99.90
18218;DHT22;9234;49.344;11.120;2023-04-15T07:53:13;9.90;99.90
18218;DHT22;9234;49.344;11.120;2023-04-15T07:55:41;9.90;99.90
18218;DHT22;9234;49.344;11.120;2023-04-15T07:58:09;10.00;99.90
18218;DHT22;9234;49.344;11.120;2023-04-15T08:00:37;10.00;99.90
18218;DHT22;9234;49.344;11.120;2023-04-15T08:03:05;10.10;99.90
18218;DHT22;9234;49.344;11.120;2023-04-15T08:05:34;10.10;99.90
18218;DHT22;9234;49.344;11.120;2023-04-15T08:08:02;10.20;99.90
18218;DHT22;9234;49.344;11.120;2023-04-15T08:10:32;10.20;99.90
18218;DHT22;9234;49.344;11.120;2023-04-15T08:13:00;10.10;99.90
18218;DHT22;9234;49.344;11.120;2023-04-15T08:15:29;10.00;99.90
18218;DHT22;9234;49.344;11.120;2023-04-15T08:17:58;10.00;99.90
18218;DHT22;9234;49.344;11.120;2023-04-15T08:20:27;10.00;99.90
18218;DHT22;9234;49.344;11.120;2023-04-15T08:22:55;10.00;99.90
18218;DHT22;9234;49.344;11.120;2023-04-15T08:25:23;10.10;99.90
18218;DHT22;9234;49.344;11.120;2023-04-15T08:27:55;10.10;99.90
18218;DHT22;9234;49.344;11.120;2023-04-15T08:30:24;10.20;99.90
18218;DHT22;9234;49.344;11.120;2023-04-15T08:32:52;10.30;99.90
18218;DHT22;9234;49.344;11.120;2023-04-15T08:35:21;10.30;99.90
18218;DHT22;9234;49.344;11.120;2023-04-15T08:37:49;10.40;99.90
18218;DHT22;9234;49.344;11.120;2023-04-15T08:40:17;10.40;99.90
18218;DHT22;9234;49.344;11.120;2023-04-15T08:42:48;10.50;99.90
18218;DHT22;9234;49.344;11.120;2023-04-15T08:45:22;10.50;99.90
18218;DHT22;9234;49.344;11.120;2023-04-15T08:47:55;10.60;99.90
18218;DHT22;9234;49.344;11.120;2023-04-15T08:50:24;10.60;99.90
18218;DHT22;9234;49.344;11.120;2023-04-15T08:52:55;10.60;99.90
18218;DHT22;9234;49.344;11.120;2023-04-15T08:55:29;10.40;99.90
18218;DHT22;9234;49.344;11.120;2023-04-15T08:58:01;10.30;99.90
18218;DHT22;9234;49.344;11.120;2023-04-15T09:00:31;10.20;99.90
18218;DHT22;9234;49.344;11.120;2023-04-15T09:03:00;10.10;99.90
18218;DHT22;9234;49.344;11.120;2023-04-15T09:05:31;9.80;99.90
18218;DHT22;9234;49.344;11.120;2023-04-15T09:08:00;9.60;99.90
18218;DHT22;9234;49.344;11.120;2023-04-15T09:10:29;9.60;99.90
18218;DHT22;9234;49.344;11.120;2023-04-15T09:12:58;9.50;99.90
18218;DHT22;9234;49.344;11.120;2023-04-15T09:15:26;9.50;99.90
18218;DHT22;9234;49.344;11.120;2023-04-15T09:17:57;9.60;99.90
18218;DHT22;9234;49.344;11.120;2023-04-15T09:20:25;9.70;99.90
18218;DHT22;9234;49.344;11.120;2023-04-15T09:22:54;9.70;99.90
18218;DHT22;9234;49.344;11.120;2023-04-15T09:25:27;9.70;99.90
18218;DHT22;9234;49.344;11.120;2023-04-15T09:28:00;9.80;99.90
18218;DHT22;9234;49.344;11.120;2023-04-15T09:30:29;9.80;99.90
18218;DHT22;9234;49.344;11.120;2023-04-15T09:33:00;9.90;99.90
18218;DHT22;9234;49.344;11.120;2023-04-15T09:35:30;10.00;99.90
18218;DHT22;9234;49.344;11.120;2023-04-15T09:38:03;10.10;99.90
18218;DHT22;9234;49.344;11.120;2023-04-15T09:40:34;10.20;99.90
18218;DHT22;9234;49.344;11.120;2023-04-15T09:43:04;10.20;99.90
18218;DHT22;9234;49.344;11.120;2023-04-15T09:45:34;10.20;99.90
18218;DHT22;9234;49.344;11.120;2023-04-15T09:48:16;10.10;99.90
18218;DHT22;9234;49.344;11.120;2023-04-15T09:50:47;10.20;99.90
18218;DHT22;9234;49.344;11.120;2023-04-15T09:53:16;10.10;99.90
18218;DHT22;9234;49.344;11.120;2023-04-15T09:55:50;10.00;99.90
18218;DHT22;9234;49.344;11.120;2023-04-15T09:58:21;10.00;99.90
18218;DHT22;9234;49.344;11.120;2023-04-15T10:00:51;9.90;99.90
18218;DHT22;9234;49.344;11.120;2023-04-15T10:03:23;9.90;99.90
18218;DHT22;9234;49.344;11.120;2023-04-15T10:05:54;10.00;99.90
18218;DHT22;9234;49.344;11.120;2023-04-15T10:08:24;10.00;99.90
18218;DHT22;9234;49.344;11.120;2023-04-15T10:10:54;10.00;99.90
18218;DHT22;9234;49.344;11.120;2023-04-15T10:13:24;10.10;99.90
18218;DHT22;9234;49.344;11.120;2023-04-15T10:15:57;10.10;99.90
18218;DHT22;9234;49.344;11.120;2023-04-15T10:18:28;10.10;99.90
18218;DHT22;9234;49.344;11.120;2023-04-15T10:21:01;10.00;99.90
18218;DHT22;9234;49.344;11.120;2023-04-15T10:23:30;10.00;99.90
18218;DHT22;9234;49.344;11.120;2023-04-15T10:25:59;10.00;99.90
18218;DHT22;9234;49.344;11.120;2023-04-15T10:28:27;9.80;99.90
18218;DHT22;9234;49.344;11.120;2023-04-15T10:30:56;9.70;99.90
18218;DHT22;9234;49.344;11.120;2023-04-15T10:33:28;9.70;99.90
18218;DHT22;9234;49.344;11.120;2023-04-15T10:35:57;9.70;99.90
18218;DHT22;9234;49.344;11.120;2023-04-15T10:38:34;9.60;99.90
18218;DHT22;9234;49.344;11.120;2023-04-15T10:41:16;9.70;99.90
18218;DHT22;9234;49.344;11.120;2023-04-15T10:43:49;9.60;99.90
18218;DHT22;9234;49.344;11.120;2023-04-15T10:46:20;9.60;99.90
18218;DHT22;9234;49.344;11.120;2023-04-15T10:48:53;9.70;99.90
18218;DHT22;9234;49.344;11.120;2023-04-15T10:51:29;9.70;99.90
18218;DHT22;9234;49.344;11.120;2023-04-15T10:53:59;9.80;99.90
18218;DHT22;9234;49.344;11.120;2023-04-15T10:56:28;9.80;99.90
18218;DHT22;9234;49.344;11.120;2023-04-15T10:58:58;9.80;99.90
18218;DHT22;9234;49.344;11.120;2023-04-15T11:01:50;9.80;99.90
18218;DHT22;9234;49.344;11.120;2023-04-15T11:04:53;9.80;99.90
18218;DHT22;9234;49.344;11.120;2023-04-15T11:07:33;9.70;99.90
18218;DHT22;9234;49.344;11.120;2023-04-15T11:10:03;9.70;99.90
18218;DHT22;9234;49.344;11.120;2023-04-15T11:12:33;9.80;99.90
18218;DHT22;9234;49.344;11.120;2023-04-15T11:15:27;9.80;99.90
18218;DHT22;9234;49.344;11.120;2023-04-15T11:17:57;9.90;99.90
18218;DHT22;9234;49.344;11.120;2023-04-15T11:20:28;10.00;99.90
18218;DHT22;9234;49.344;11.120;2023-04-15T11:22:58;10.00;99.90
18218;DHT22;9234;49.344;11.120;2023-04-15T11:25:44;10.00;99.90
18218;DHT22;9234;49.344;11.120;2023-04-15T11:28:13;10.10;99.90
18218;DHT22;9234;49.344;11.120;2023-04-15T11:30:41;10.10;99.90
18218;DHT22;9234;49.344;11.120;2023-04-15T11:33:11;10.10;99.90
18218;DHT22;9234;49.344;11.120;2023-04-15T11:35:41;10.00;99.90
18218;DHT22;9234;49.344;11.120;2023-04-15T11:38:12;9.90;99.90
18218;DHT22;9234;49.344;11.120;2023-04-15T11:40:42;9.90;99.90
18218;DHT22;9234;49.344;11.120;2023-04-15T11:43:14;9.90;99.90
18218;DHT22;9234;49.344;11.120;2023-04-15T11:45:49;9.90;99.90
18218;DHT22;9234;49.344;11.120;2023-04-15T11:48:20;10.00;99.90
18218;DHT22;9234;49.344;11.120;2023-04-15T11:50:55;10.00;99.90
18218;DHT22;9234;49.344;11.120;2023-04-15T11:53:35;10.10;99.90
18218;DHT22;9234;49.344;11.120;2023-04-15T11:56:06;10.00;99.90
18218;DHT22;9234;49.344;11.120;2023-04-15T11:58:36;9.90;99.90
18218;DHT22;9234;49.344;11.120;2023-04-15T12:01:05;10.00;99.90
18218;DHT22;9234;49.344;11.120;2023-04-15T12:03:38;9.90;99.90
18218;DHT22;9234;49.344;11.120;2023-04-15T12:06:14;9.90;99.90
18218;DHT22;9234;49.344;11.120;2023-04-15T12:08:56;9.90;99.90
18218;DHT22;9234;49.344;11.120;2023-04-15T12:11:34;9.90;99.90
18218;DHT22;9234;49.344;11.120;2023-04-15T12:14:06;9.90;99.90
18218;DHT22;9234;49.344;11.120;2023-04-15T12:16:40;9.80;99.90
18218;DHT22;9234;49.344;11.120;2023-04-15T12:19:18;9.90;99.90
18218;DHT22;9234;49.344;11.120;2023-04-15T12:21:53;9.80;99.90
18218;DHT22;9234;49.344;11.120;2023-04-15T12:24:27;9.80;99.90
18218;DHT22;9234;49.344;11.120;2023-04-15T12:27:01;9.90;99.90
18218;DHT22;9234;49.344;11.120;2023-04-15T12:29:32;9.90;99.90
18218;DHT22;9234;49.344;11.120;2023-04-15T12:32:05;9.90;99.90
18218;DHT22;9234;49.344;11.120;2023-04-15T12:34:36;10.00;99.90
18218;DHT22;9234;49.344;11.120;2023-04-15T12:37:07;10.00;99.90
18218;DHT22;9234;49.344;11.120;2023-04-15T12:39:38;10.10;99.90
18218;DHT22;9234;49.344;11.120;2023-04-15T12:42:08;10.10;99.90
18218;DHT22;9234;49.344;11.120;2023-04-15T12:44:38;10.00;99.90
18218;DHT22;9234;49.344;11.120;2023-04-15T12:47:07;10.00;99.90
18218;DHT22;9234;49.344;11.120;2023-04-15T12:49:37;10.00;99.90
18218;DHT22;9234;49.344;11.120;2023-04-15T12:52:07;9.90;99.90
18218;DHT22;9234;49.344;11.120;2023-04-15T12:54:35;9.80;99.90
18218;DHT22;9234;49.344;11.120;2023-04-15T12:57:04;9.80;99.90
18218;DHT22;9234;49.344;11.120;2023-04-15T12:59:33;9.80;99.90
18218;DHT22;9234;49.344;11.120;2023-04-15T13:02:03;9.80;99.90
18218;DHT22;9234;49.344;11.120;2023-04-15T13:04:32;9.80;99.90
18218;DHT22;9234;49.344;11.120;2023-04-15T13:07:01;9.80;99.90
18218;DHT22;9234;49.344;11.120;2023-04-15T13:09:31;9.80;99.90
18218;DHT22;9234;49.344;11.120;2023-04-15T13:11:59;9.70;99.90
18218;DHT22;9234;49.344;11.120;2023-04-15T13:14:30;9.70;99.90
18218;DHT22;9234;49.344;11.120;2023-04-15T13:16:58;9.60;99.90
18218;DHT22;9234;49.344;11.120;2023-04-15T13:19:27;9.70;99.90
18218;DHT22;9234;49.344;11.120;2023-04-15T13:21:55;9.70;99.90
18218;DHT22;9234;49.344;11.120;2023-04-15T13:24:23;9.70;99.90
18218;DHT22;9234;49.344;11.120;2023-04-15T13:26:53;9.70;99.90
18218;DHT22;9234;49.344;11.120;2023-04-15T13:29:24;9.70;99.90
18218;DHT22;9234;49.344;11.120;2023-04-15T13:31:53;9.80;99.90
18218;DHT22;9234;49.344;11.120;2023-04-15T13:34:21;9.90;99.90
18218;DHT22;9234;49.344;11.120;2023-04-15T13:36:50;9.90;99.90
18218;DHT22;9234;49.344;11.120;2023-04-15T13:39:18;9.90;99.90
18218;DHT22;9234;49.344;11.120;2023-04-15T13:41:46;9.90;99.90
18218;DHT22;9234;49.344;11.120;2023-04-15T13:44:16;9.90;99.90
18218;DHT22;9234;49.344;11.120;2023-04-15T13:46:47;10.00;99.90
18218;DHT22;9234;49.344;11.120;2023-04-15T13:49:15;10.00;99.90
18218;DHT22;9234;49.344;11.120;2023-04-15T13:51:43;10.00;99.90
18218;DHT22;9234;49.344;11.120;2023-04-15T13:54:12;9.90;99.90
18218;DHT22;9234;49.344;11.120;2023-04-15T13:56:40;9.90;99.90
18218;DHT22;9234;49.344;11.120;2023-04-15T13:59:08;9.90;99.90
18218;DHT22;9234;49.344;11.120;2023-04-15T14:01:38;9.90;99.90
18218;DHT22;9234;49.344;11.120;2023-04-15T14:04:07;9.80;99.90
18218;DHT22;9234;49.344;11.120;2023-04-15T14:06:36;9.80;99.90
18218;DHT22;9234;49.344;11.120;2023-04-15T14:09:04;9.80;99.90
18218;DHT22;9234;49.344;11.120;2023-04-15T14:11:32;9.90;99.90
18218;DHT22;9234;49.344;11.120;2023-04-15T14:14:02;9.90;99.90
18218;DHT22;9234;49.344;11.120;2023-04-15T14:16:31;10.00;99.90
18218;DHT22;9234;49.344;11.120;2023-04-15T14:19:02;10.00;99.90
18218;DHT22;9234;49.344;11.120;2023-04-15T14:21:30;10.00;99.90
18218;DHT22;9234;49.344;11.120;2023-04-15T14:23:59;10.00;99.90
18218;DHT22;9234;49.344;11.120;2023-04-15T14:26:27;10.00;99.90
18218;DHT22;9234;49.344;11.120;2023-04-15T14:28:56;10.00;99.90
18218;DHT22;9234;49.344;11.120;2023-04-15T14:31:24;10.00;99.90
18218;DHT22;9234;49.344;11.120;2023-04-15T14:33:52;10.00;99.90
18218;DHT22;9234;49.344;11.120;2023-04-15T14:36:22;9.90;99.90
18218;DHT22;9234;49.344;11.120;2023-04-15T14:38:50;9.90;99.90
18218;DHT22;9234;49.344;11.120;2023-04-15T14:41:19;9.90;99.90
18218;DHT22;9234;49.344;11.120;2023-04-15T14:43:48;9.90;99.90
18218;DHT22;9234;49.344;11.120;2023-04-15T14:46:16;10.00;99.90
18218;DHT22;9234;49.344;11.120;2023-04-15T14:48:44;9.90;99.90
18218;DHT22;9234;49.344;11.120;2023-04-15T14:51:13;9.90;99.90
18218;DHT22;9234;49.344;11.120;2023-04-15T14:53:43;10.00;99.90
18218;DHT22;9234;49.344;11.120;2023-04-15T14:56:12;10.00;99.90
18218;DHT22;9234;49.344;11.120;2023-04-15T14:58:40;9.90;99.90
18218;DHT22;9234;49.344;11.120;2023-04-15T15:01:09;9.90;99.90
18218;DHT22;9234;49.344;11.120;2023-04-15T15:03:38;9.90;99.90
18218;DHT22;9234;49.344;11.120;2023-04-15T15:06:06;9.80;99.90
18218;DHT22;9234;49.344;11.120;2023-04-15T15:08:35;9.90;99.90
18218;DHT22;9234;49.344;11.120;2023-04-15T15:11:04;9.80;99.90
18218;DHT22;9234;49.344;11.120;2023-04-15T15:13:33;9.70;99.90
18218;DHT22;9234;49.344;11.120;2023-04-15T15:16:01;9.60;99.90
18218;DHT22;9234;49.344;11.120;2023-04-15T15:18:30;9.60;99.90
18218;DHT22;9234;49.344;11.120;2023-04-15T15:20:58;9.60;99.90
18218;DHT22;9234;49.344;11.120;2023-04-15T15:23:26;9.50;99.90
18218;DHT22;9234;49.344;11.120;2023-04-15T15:25:54;9.40;99.90
18218;DHT22;9234;49.344;11.120;2023-04-15T15:28:25;9.40;99.90
18218;DHT22;9234;49.344;11.120;2023-04-15T15:30:54;9.40;99.90
18218;DHT22;9234;49.344;11.120;2023-04-15T15:33:22;9.40;99.90
18218;DHT22;9234;49.344;11.120;2023-04-15T15:35:50;9.40;99.90
18218;DHT22;9234;49.344;11.120;2023-04-15T15:38:19;9.30;99.90
18218;DHT22;9234;49.344;11.120;2023-04-15T15:40:47;9.30;99.90
18218;DHT22;9234;49.344;11.120;2023-04-15T15:43:15;9.30;99.90
18218;DHT22;9234;49.344;11.120;2023-04-15T15:45:45;9.30;99.90
18218;DHT22;9234;49.344;11.120;2023-04-15T15:48:13;9.30;99.90
18218;DHT22;9234;49.344;11.120;2023-04-15T15:50:42;9.40;99.90
18218;DHT22;9234;49.344;11.120;2023-04-15T15:53:11;9.40;99.90
18218;DHT22;9234;49.344;11.120;2023-04-15T15:55:43;9.40;99.90
18218;DHT22;9234;49.344;11.120;2023-04-15T15:58:11;9.40;99.90